createdAt,value
2017-12-17T00:00:16.227Z,19
2017-12-17T00:02:30.887Z,19
2017-12-17T00:04:46.389Z,21
2017-12-17T00:06:57.172Z,21
2017-12-17T00:09:07.550Z,20
2017-12-17T00:11:14.591Z,21
2017-12-17T00:13:22.663Z,19
2017-12-17T00:15:31.009Z,20
2017-12-17T00:17:38.663Z,21
2017-12-17T00:19:50.324Z,17
2017-12-17T00:21:58.370Z,17
2017-12-17T00:24:15.567Z,21
2017-12-17T00:26:16.888Z,19
2017-12-17T00:28:37.688Z,18
2017-12-17T00:30:53.049Z,20
2017-12-17T00:33:12.629Z,21
2017-12-17T00:37:49.615Z,19
2017-12-17T00:39:56.186Z,20
2017-12-17T00:42:09.492Z,20
2017-12-17T00:44:16.549Z,20
2017-12-17T00:46:24.723Z,19
2017-12-17T00:48:47.174Z,20
2017-12-17T00:50:58.648Z,17
2017-12-17T00:53:04.752Z,20
2017-12-17T00:55:11.428Z,19
2017-12-17T00:57:20.145Z,17
2017-12-17T00:59:44.273Z,19
2017-12-17T01:01:50.745Z,20
2017-12-17T01:04:14.840Z,19
2017-12-17T01:06:30.171Z,19
2017-12-17T01:08:40.843Z,19
2017-12-17T01:10:51.629Z,17
2017-12-17T01:13:00.066Z,17
2017-12-17T01:15:08.065Z,19
2017-12-17T01:17:26.709Z,16
2017-12-17T01:19:35.467Z,17
2017-12-17T01:21:43.849Z,17
2017-12-17T01:23:56.332Z,19
2017-12-17T01:26:16.066Z,16
2017-12-17T01:28:23.808Z,19
2017-12-17T01:30:31.169Z,19
2017-12-17T01:32:39.349Z,19
2017-12-17T01:34:54.489Z,17
2017-12-17T01:37:07.084Z,19
2017-12-17T01:39:15.446Z,19
2017-12-17T01:41:28.434Z,18
2017-12-17T01:43:36.526Z,18
2017-12-17T01:45:42.647Z,15
2017-12-17T01:47:52.571Z,15
2017-12-17T01:50:01.368Z,17
2017-12-17T01:52:11.093Z,15
2017-12-17T01:54:27.183Z,17
2017-12-17T01:56:50.244Z,17
2017-12-17T01:59:00.328Z,17
2017-12-17T02:01:08.086Z,19
2017-12-17T02:03:24.563Z,15
2017-12-17T02:05:31.449Z,19
2017-12-17T02:07:41.084Z,17
2017-12-17T02:09:48.408Z,17
2017-12-17T02:11:56.870Z,15
2017-12-17T02:16:42.916Z,17
2017-12-17T02:18:57.183Z,17
2017-12-17T02:21:05.222Z,18
2017-12-17T02:23:36.404Z,15
2017-12-17T02:25:54.475Z,16
2017-12-17T02:28:02.096Z,16
2017-12-17T02:30:09.609Z,18
2017-12-17T02:32:18.193Z,15
2017-12-17T02:34:25.867Z,18
2017-12-17T02:36:34.749Z,16
2017-12-17T02:38:48.265Z,17
2017-12-17T02:40:57.708Z,16
2017-12-17T02:43:14.512Z,17
2017-12-17T02:45:26.808Z,16
2017-12-17T02:47:44.257Z,15
2017-12-17T02:50:06.167Z,14
2017-12-17T02:52:40.293Z,14
2017-12-17T02:55:04.100Z,17
2017-12-17T02:57:16.219Z,17
2017-12-17T02:59:53.960Z,17
2017-12-17T03:04:04.131Z,17
2017-12-17T03:06:24.877Z,16
2017-12-17T03:08:39.733Z,17
2017-12-17T03:11:06.774Z,13
2017-12-17T03:13:17.913Z,13
2017-12-17T03:15:28.091Z,15
2017-12-17T03:17:38.101Z,15
2017-12-17T03:19:46.856Z,17
2017-12-17T03:21:54.802Z,16
2017-12-17T03:24:00.800Z,17
2017-12-17T03:26:08.525Z,17
2017-12-17T03:28:15.023Z,17
2017-12-17T03:32:51.110Z,15
2017-12-17T03:34:57.928Z,17
2017-12-17T03:37:06.130Z,15
2017-12-17T03:39:13.316Z,17
2017-12-17T03:41:19.605Z,17
2017-12-17T03:43:27.789Z,15
2017-12-17T03:45:34.170Z,16
2017-12-17T03:47:41.436Z,14
2017-12-17T03:52:19.412Z,14
2017-12-17T03:54:26.814Z,13
2017-12-17T03:56:34.627Z,16
2017-12-17T03:58:41.593Z,14
2017-12-17T04:00:47.607Z,13
2017-12-17T04:02:54.347Z,16
2017-12-17T04:05:01.312Z,16
2017-12-17T04:07:10.332Z,16
2017-12-17T04:09:16.665Z,15
2017-12-17T04:13:19.373Z,15
2017-12-17T04:15:26.809Z,15
2017-12-17T04:17:37.092Z,15
2017-12-17T04:19:44.130Z,15
2017-12-17T04:21:53.531Z,12
2017-12-17T04:23:59.896Z,13
2017-12-17T04:26:05.604Z,11
2017-12-17T04:28:11.550Z,13
2017-12-17T04:30:18.352Z,13
2017-12-17T04:32:25.588Z,12
2017-12-17T04:34:32.638Z,15
2017-12-17T04:36:40.643Z,15
2017-12-17T04:38:50.735Z,15
2017-12-17T04:40:59.802Z,15
2017-12-17T04:43:12.187Z,12
2017-12-17T04:45:24.147Z,13
2017-12-17T04:47:43.265Z,13
2017-12-17T04:50:11.633Z,10
2017-12-17T04:52:31.587Z,10
2017-12-17T04:54:38.667Z,14
2017-12-17T04:57:07.225Z,10
2017-12-17T04:59:24.546Z,10
2017-12-17T05:01:48.954Z,12
2017-12-17T05:08:10.265Z,12
2017-12-17T05:10:14.886Z,12
2017-12-17T05:12:26.369Z,13
2017-12-17T05:14:34.620Z,11
2017-12-17T05:16:55.543Z,13
2017-12-17T05:19:15.945Z,13
2017-12-17T05:21:24.368Z,13
2017-12-17T05:23:44.903Z,13
2017-12-17T05:26:02.207Z,8
2017-12-17T05:28:11.746Z,11
2017-12-17T05:30:19.710Z,12
2017-12-17T05:32:23.650Z,12
2017-12-17T05:34:33.810Z,10
2017-12-17T05:36:50.565Z,12
2017-12-17T05:39:08.906Z,9
2017-12-17T05:41:23.542Z,11
2017-12-17T05:43:38.213Z,8
2017-12-17T05:45:33.526Z,11
2017-12-17T05:48:02.687Z,12
2017-12-17T05:52:11.443Z,12
2017-12-17T05:54:25.197Z,10
2017-12-17T05:56:34.621Z,12
2017-12-17T05:58:37.767Z,10
2017-12-17T06:00:43.588Z,10
2017-12-17T06:02:52.587Z,10
2017-12-17T06:06:59.007Z,12
2017-12-17T06:09:04.322Z,12
2017-12-17T06:11:08.773Z,10
2017-12-17T06:13:13.717Z,10
2017-12-17T06:15:19.352Z,8
2017-12-17T06:17:24.666Z,10
2017-12-17T06:19:29.869Z,8
2017-12-17T06:21:35.209Z,10
2017-12-17T06:23:41.224Z,10
2017-12-17T06:25:45.691Z,10
2017-12-17T06:27:51.175Z,10
2017-12-17T06:29:53.989Z,10
2017-12-17T06:31:58.291Z,10
2017-12-17T06:34:03.857Z,8
2017-12-17T06:36:08.496Z,10
2017-12-17T06:38:13.389Z,10
2017-12-17T06:40:25.135Z,9
2017-12-17T06:42:29.575Z,10
2017-12-17T06:44:35.605Z,10
2017-12-17T06:46:40.878Z,9
2017-12-17T06:48:46.640Z,9
2017-12-17T06:50:51.942Z,8
2017-12-17T06:52:58.894Z,7
2017-12-17T06:56:59.905Z,8
2017-12-17T07:01:03.970Z,7
2017-12-17T07:03:09.893Z,9
2017-12-17T07:05:15.533Z,9
2017-12-17T07:07:20.114Z,9
2017-12-17T07:09:24.594Z,9
2017-12-17T07:11:30.256Z,9
2017-12-17T07:13:36.150Z,9
2017-12-17T07:15:41.190Z,6
2017-12-17T07:17:45.350Z,9
2017-12-17T07:19:51.369Z,8
2017-12-17T07:21:56.668Z,9
2017-12-17T07:27:56.248Z,8
2017-12-17T07:30:01.487Z,9
2017-12-17T07:32:06.351Z,6
2017-12-17T07:38:06.447Z,8
2017-12-17T07:40:10.996Z,10
2017-12-17T07:42:16.169Z,8
2017-12-17T07:44:21.691Z,6
2017-12-17T07:46:26.429Z,8
2017-12-17T07:50:29.573Z,6
2017-12-17T07:52:36.330Z,7
2017-12-17T07:54:40.251Z,9
2017-12-17T07:56:45.455Z,8
2017-12-17T07:58:51.234Z,8
2017-12-17T08:00:55.920Z,7
2017-12-17T08:03:00.336Z,8
2017-12-17T08:05:05.229Z,8
2017-12-17T08:11:04.688Z,9
2017-12-17T08:13:09.977Z,7
2017-12-17T08:15:14.751Z,8
2017-12-17T08:17:21.572Z,5
2017-12-17T08:19:24.075Z,8
2017-12-17T08:21:28.566Z,5
2017-12-17T08:23:34.287Z,8
2017-12-17T08:25:38.973Z,8
2017-12-17T08:31:37.946Z,8
2017-12-17T08:33:43.087Z,7
2017-12-17T08:41:42.470Z,8
2017-12-17T08:43:47.014Z,5
2017-12-17T08:45:51.875Z,6
2017-12-17T08:47:57.611Z,7
2017-12-17T08:50:02.548Z,7
2017-12-17T08:52:07.152Z,8
2017-12-17T08:54:14.208Z,8
2017-12-17T08:56:16.567Z,6
2017-12-17T08:58:21.427Z,7
2017-12-17T09:00:27.553Z,4
2017-12-17T09:02:32.887Z,6
2017-12-17T09:04:37.751Z,8
2017-12-17T09:06:43.044Z,4
2017-12-17T09:10:45.928Z,7
2017-12-17T09:12:50.970Z,6
2017-12-17T09:14:55.636Z,6
2017-12-17T09:17:00.730Z,6
2017-12-17T09:19:05.473Z,6
2017-12-17T09:21:11.720Z,6
2017-12-17T09:23:16.735Z,6
2017-12-17T09:27:25.792Z,6
2017-12-17T09:29:33.484Z,4
2017-12-17T09:31:34.108Z,6
2017-12-17T09:33:42.184Z,6
2017-12-17T09:35:45.615Z,5
2017-12-17T09:37:50.591Z,3
2017-12-17T09:41:53.072Z,6
2017-12-17T09:43:57.732Z,5
2017-12-17T09:46:03.109Z,4
2017-12-17T09:48:08.468Z,6
2017-12-17T09:50:13.547Z,5
2017-12-17T09:52:18.448Z,6
2017-12-17T09:54:23.450Z,5
2017-12-17T10:02:22.486Z,3
2017-12-17T10:04:25.831Z,3
2017-12-17T10:06:31.333Z,5
2017-12-17T10:08:37.010Z,4
2017-12-17T10:10:41.773Z,2
2017-12-17T10:16:46.327Z,4
2017-12-17T10:18:49.954Z,1
2017-12-17T10:20:54.694Z,1
2017-12-17T10:23:00.054Z,3
2017-12-17T10:25:05.107Z,3
2017-12-17T10:27:11.734Z,3
2017-12-17T10:29:15.690Z,1
2017-12-17T10:31:21.311Z,0
2017-12-17T10:33:26.429Z,1
2017-12-17T10:35:31.293Z,1
2017-12-17T10:37:36.173Z,0
2017-12-17T10:39:41.128Z,1
2017-12-17T10:43:43.989Z,2
2017-12-17T10:45:49.252Z,0
2017-12-17T10:49:17.653Z,0
2017-12-17T10:51:23.355Z,0
2017-12-17T10:57:09.529Z,0
2017-12-17T10:59:15.596Z,0
